Time;durP1;ratioP1;P1;durP2;ratioP2;P2;SDS_P1;SDS_P2;PMS_P1;PMS_P2;Temp;Humidity;BMP_temperature;BMP_pressure;BME280_temperature;BME280_humidity;BME280_pressure;Samples;Min_cycle;Max_cycle;Signal;HPM_P1;HPM_P2
2023/04/28 00:00:16;;;;;;;;;;;;;;;8.87;66.26;101370.34;5060977;28;20324;-76
2023/04/28 00:02:41;;;;;;;6.15;5.28;;;;;;;8.85;66.23;101366.91;5075618;28;19958;-76
2023/04/28 00:05:07;;;;;;;6.18;5.68;;;;;;;8.83;66.46;101366.09;5080259;28;20040;-76
2023/04/28 00:07:33;;;;;;;6.43;5.35;;;;;;;8.82;66.68;101356.53;5079378;28;20044;-76
2023/04/28 00:09:58;;;;;;;6.28;5.50;;;;;;;8.81;66.47;101350.44;5080155;28;20064;-76
2023/04/28 00:12:24;;;;;;;5.63;5.13;;;;;;;8.81;66.53;101345.22;5065814;28;20283;-76
2023/04/28 00:14:49;;;;;;;6.40;5.18;;;;;;;8.84;66.82;101352.13;5060169;28;20037;-76
2023/04/28 00:17:16;;;;;;;7.25;5.68;;;;;;;8.85;66.72;101346.00;5072993;28;20044;-76
2023/04/28 00:19:41;;;;;;;6.50;5.65;;;;;;;8.84;66.75;101346.91;5074365;28;20040;-76
2023/04/28 00:22:06;;;;;;;5.15;4.65;;;;;;;8.81;66.48;101347.84;5060112;28;20044;-76
2023/04/28 00:24:32;;;;;;;6.50;5.35;;;;;;;8.81;66.70;101333.94;5079086;28;20411;-76
2023/04/28 00:26:58;;;;;;;8.35;5.57;;;;;;;8.80;66.69;101326.97;5068153;28;20244;-76
2023/04/28 00:29:23;;;;;;;9.05;5.88;;;;;;;8.78;66.56;101320.94;5059659;28;20064;-76
2023/04/28 00:31:49;;;;;;;6.50;5.72;;;;;;;8.75;66.64;101321.00;5069153;28;20044;-76
2023/04/28 00:34:14;;;;;;;6.30;5.70;;;;;;;8.74;66.99;101319.31;5080016;28;20040;-76
2023/04/28 00:36:40;;;;;;;8.25;5.90;;;;;;;8.73;66.88;101315.84;5071029;28;20359;-76
2023/04/28 00:39:05;;;;;;;8.13;5.68;;;;;;;8.73;66.97;101313.25;5059989;28;20421;-76
2023/04/28 00:41:33;;;;;;;6.38;5.78;;;;;;;8.72;67.25;101308.91;5066558;28;20043;-76
2023/04/28 00:43:58;;;;;;;5.78;5.28;;;;;;;8.72;67.10;101305.44;5079893;28;20044;-76
2023/04/28 00:46:28;;;;;;;6.28;5.65;;;;;;;8.70;67.43;101297.66;5066735;28;20033;-76
2023/04/28 00:48:54;;;;;;;8.10;5.38;;;;;;;8.70;67.21;101291.56;5059113;28;20044;-76
2023/04/28 00:51:21;;;;;;;6.50;5.50;;;;;;;8.70;67.18;101291.56;5070602;28;20202;-75
2023/04/28 00:53:47;;;;;;;7.00;5.35;;;;;;;8.67;66.99;101289.03;5078810;28;20048;-76
2023/04/28 00:56:12;;;;;;;12.52;5.68;;;;;;;8.65;66.92;101292.53;5069431;28;20036;-75
2023/04/28 00:58:38;;;;;;;5.78;5.28;;;;;;;8.64;67.04;101283.00;5058925;28;20366;-75
2023/04/28 01:01:04;;;;;;;5.95;5.30;;;;;;;8.63;66.91;101276.03;5070744;28;20024;-75
2023/04/28 01:03:33;;;;;;;6.18;4.70;;;;;;;8.62;66.99;101265.63;5073728;28;20036;-75
2023/04/28 01:05:59;;;;;;;8.07;5.70;;;;;;;8.63;67.23;101263.00;5077417;28;20055;-76
2023/04/28 01:08:29;;;;;;;6.45;5.68;;;;;;;8.62;66.96;101263.03;5078999;28;20097;-76
2023/04/28 01:10:55;;;;;;;6.40;5.82;;;;;;;8.61;67.08;101261.31;5060906;28;20363;-75
2023/04/28 01:13:20;;;;;;;10.52;5.65;;;;;;;8.60;67.09;101257.88;5058994;28;20045;-75
2023/04/28 01:15:46;;;;;;;5.93;5.40;;;;;;;8.61;67.28;101240.44;5072940;28;20359;-75
2023/04/28 01:18:12;;;;;;;8.63;5.90;;;;;;;8.61;67.60;101243.91;5078894;28;20059;-75
2023/04/28 01:20:38;;;;;;;6.65;5.80;;;;;;;8.58;67.50;101243.97;5064242;28;20086;-75
2023/04/28 01:23:03;;;;;;;6.55;6.05;;;;;;;8.58;67.67;101248.34;5059257;28;20065;-75
2023/04/28 01:25:28;;;;;;;6.68;5.70;;;;;;;8.58;67.22;101241.34;5070270;28;20040;-75
2023/04/28 01:27:54;;;;;;;7.95;5.88;;;;;;;8.54;67.65;101239.72;5078306;28;20051;-75
2023/04/28 01:30:20;;;;;;;7.75;6.28;;;;;;;8.53;67.54;101242.38;5068563;28;20139;-75
2023/04/28 01:32:45;;;;;;;6.78;5.55;;;;;;;8.51;67.78;101231.97;5075308;28;20043;-75
2023/04/28 01:35:10;;;;;;;7.95;6.15;;;;;;;8.51;67.64;101224.13;5076805;28;20099;-75
2023/04/28 01:37:36;;;;;;;9.60;6.40;;;;;;;8.49;67.85;101223.31;5069621;28;20036;-75
2023/04/28 01:40:01;;;;;;;10.40;5.90;;;;;;;8.47;67.67;101206.84;5057471;28;20037;-75
2023/04/28 01:42:26;;;;;;;6.55;5.95;;;;;;;8.47;67.89;101200.78;5064643;28;20049;-75
2023/04/28 01:44:52;;;;;;;10.02;6.25;;;;;;;8.45;67.92;101206.03;5076703;28;20266;-75
2023/04/28 01:47:17;;;;;;;6.63;5.75;;;;;;;8.44;67.95;101206.91;5074248;28;20234;-75
2023/04/28 01:49:43;;;;;;;8.82;6.13;;;;;;;8.43;68.09;101213.06;5057942;28;20056;-76
2023/04/28 01:52:08;;;;;;;7.95;6.32;;;;;;;8.42;67.91;101207.00;5060239;28;20168;-75
2023/04/28 01:54:33;;;;;;;8.93;5.95;;;;;;;8.42;68.44;101201.75;5077296;28;20044;-75
2023/04/28 01:56:59;;;;;;;7.88;6.40;;;;;;;8.44;68.63;101205.19;5077211;28;20048;-76
2023/04/28 01:59:24;;;;;;;10.43;6.45;;;;;;;8.43;68.82;101205.22;5078182;28;20036;-75
2023/04/28 02:01:49;;;;;;;9.55;6.18;;;;;;;8.43;68.64;101197.41;5087791;28;20042;-76
2023/04/28 02:04:15;;;;;;;9.57;6.28;;;;;;;8.41;68.33;101194.78;5077640;28;20291;-76
2023/04/28 02:06:40;;;;;;;5.72;5.22;;;;;;;8.42;68.70;101195.66;5068199;28;20566;-76
2023/04/28 02:09:06;;;;;;;6.85;6.05;;;;;;;8.42;68.52;101193.06;5065411;28;20037;-75
2023/04/28 02:11:31;;;;;;;8.20;6.70;;;;;;;8.41;68.60;101179.13;5076639;28;20048;-75
2023/04/28 02:13:56;;;;;;;7.03;6.32;;;;;;;8.42;68.91;101182.63;5062607;28;20040;-75
2023/04/28 02:16:22;;;;;;;7.32;6.57;;;;;;;8.42;69.19;101169.56;5057781;28;20037;-76
2023/04/28 02:18:47;;;;;;;6.45;5.85;;;;;;;8.40;69.08;101166.13;5070713;28;20041;-75
2023/04/28 02:21:13;;;;;;;8.27;6.60;;;;;;;8.37;69.14;101167.06;5068271;28;20113;-75
2023/04/28 02:23:38;;;;;;;10.32;7.15;;;;;;;8.37;69.09;101168.81;5063968;28;20131;-76
2023/04/28 02:26:04;;;;;;;12.38;6.80;;;;;;;8.34;69.78;101164.53;5078058;28;20363;-76
2023/04/28 02:28:30;;;;;;;12.05;6.70;;;;;;;8.32;69.08;101160.25;5068693;28;20049;-73
2023/04/28 02:31:09;;;;;;;9.48;6.63;;;;;;;8.31;69.46;101159.38;5071947;28;20048;-73
2023/04/28 02:33:35;;;;;;;8.00;6.32;;;;;;;8.31;69.25;101155.91;5092269;28;20081;-73
2023/04/28 02:36:02;;;;;;;8.32;6.88;;;;;;;8.31;69.24;101153.31;5070030;28;20039;-73
2023/04/28 02:38:28;;;;;;;7.50;6.47;;;;;;;8.29;69.14;101147.28;5071036;28;20032;-73
2023/04/28 02:41:03;;;;;;;9.43;6.40;;;;;;;8.29;69.00;101139.44;5081521;28;20383;-72
2023/04/28 02:43:29;;;;;;;12.85;6.15;;;;;;;8.30;68.96;101146.41;5083494;28;20346;-73
2023/04/28 02:45:55;;;;;;;8.88;6.35;;;;;;;8.30;69.34;101143.78;5083090;28;20044;-73
2023/04/28 02:48:20;;;;;;;9.35;6.22;;;;;;;8.28;69.28;101143.81;5078124;28;20069;-72
2023/04/28 02:50:46;;;;;;;7.57;6.78;;;;;;;8.27;69.53;101144.69;5082876;28;20041;-72
2023/04/28 02:53:11;;;;;;;7.95;6.65;;;;;;;8.26;69.58;101148.22;5079527;28;20128;-73
2023/04/28 02:55:37;;;;;;;13.93;6.95;;;;;;;8.24;69.71;101145.66;5062408;28;20052;-74
2023/04/28 02:58:02;;;;;;;10.98;7.10;;;;;;;8.24;69.56;101147.38;5059346;28;20048;-75
2023/04/28 03:00:28;;;;;;;6.78;5.95;;;;;;;8.24;69.57;101150.88;5077559;28;20021;-74
2023/04/28 03:02:53;;;;;;;9.60;6.90;;;;;;;8.23;69.74;101138.72;5090325;28;20066;-74
2023/04/28 03:05:19;;;;;;;8.20;6.70;;;;;;;8.19;69.73;101131.88;5057648;28;20051;-74
2023/04/28 03:07:44;;;;;;;7.30;6.00;;;;;;;8.20;70.28;101143.16;5058967;28;20112;-74
2023/04/28 03:10:10;;;;;;;9.13;7.20;;;;;;;8.21;70.07;101139.66;5058863;28;20091;-75
2023/04/28 03:12:35;;;;;;;7.50;6.20;;;;;;;8.21;70.27;101137.91;5057010;28;20033;-74
2023/04/28 03:15:00;;;;;;;7.30;6.60;;;;;;;8.20;70.49;101127.50;5060619;28;20098;-74
2023/04/28 03:17:26;;;;;;;10.52;6.85;;;;;;;8.20;70.13;101122.28;5060125;28;20167;-75
2023/04/28 03:19:51;;;;;;;11.63;7.15;;;;;;;8.23;70.45;101125.66;5063976;28;20537;-75
2023/04/28 03:22:17;;;;;;;8.05;7.10;;;;;;;8.24;70.44;101135.22;5061073;28;20037;-74
2023/04/28 03:24:42;;;;;;;11.40;6.35;;;;;;;8.24;70.17;101119.56;5062358;28;20049;-74
2023/04/28 03:27:08;;;;;;;8.00;6.97;;;;;;;8.23;69.94;101106.56;5062254;28;20051;-74
2023/04/28 03:29:33;;;;;;;8.50;6.25;;;;;;;8.24;70.27;101108.25;5071552;28;20078;-74
2023/04/28 03:31:58;;;;;;;9.57;6.43;;;;;;;8.24;70.04;101103.91;5092345;28;20035;-74
2023/04/28 03:34:24;;;;;;;7.30;6.57;;;;;;;8.25;70.42;101104.75;5071015;28;20040;-74
2023/04/28 03:36:49;;;;;;;9.00;6.93;;;;;;;8.24;70.27;101095.19;5060356;28;20037;-74
2023/04/28 03:39:14;;;;;;;10.70;6.68;;;;;;;8.24;70.37;101097.81;5070104;28;20052;-75
2023/04/28 03:41:40;;;;;;;8.00;7.07;;;;;;;8.22;70.58;101097.00;5078955;28;20044;-75
2023/04/28 03:44:05;;;;;;;7.03;6.35;;;;;;;8.23;70.62;101094.34;5070182;28;20040;-74
2023/04/28 03:46:31;;;;;;;9.25;7.25;;;;;;;8.21;71.09;101084.88;5080794;28;20052;-75
2023/04/28 03:48:56;;;;;;;8.57;6.82;;;;;;;8.22;71.07;101077.00;5068913;28;20055;-74
2023/04/28 03:51:21;;;;;;;10.35;7.35;;;;;;;8.22;71.12;101074.38;5062366;28;20039;-75
2023/04/28 03:53:47;;;;;;;6.95;6.25;;;;;;;8.22;71.32;101070.91;5068821;28;20040;-75
2023/04/28 03:56:12;;;;;;;9.68;7.35;;;;;;;8.23;71.67;101065.66;5080353;28;20040;-74
2023/04/28 03:58:37;;;;;;;9.40;6.63;;;;;;;8.23;71.34;101063.03;5069384;28;20139;-74
2023/04/28 04:01:04;;;;;;;10.23;7.07;;;;;;;8.22;71.68;101050.91;5083173;28;20024;-74
2023/04/28 04:03:29;;;;;;;12.25;7.03;;;;;;;8.22;71.84;101065.69;5089440;28;20370;-74
2023/04/28 04:05:55;;;;;;;7.53;6.82;;;;;;;8.22;71.96;101063.97;5061542;28;20037;-74
2023/04/28 04:08:21;;;;;;;10.95;6.72;;;;;;;8.24;71.97;101048.22;5068232;28;20377;-75
2023/04/28 04:10:46;;;;;;;9.25;7.55;;;;;;;8.25;72.09;101047.34;5062883;28;20049;-75
2023/04/28 04:13:11;;;;;;;7.55;6.85;;;;;;;8.25;71.72;101044.75;5066023;28;20044;-74
2023/04/28 04:15:37;;;;;;;12.23;7.90;;;;;;;8.25;71.69;101036.91;5063548;28;20044;-74
2023/04/28 04:18:02;;;;;;;7.53;6.82;;;;;;;8.24;71.94;101033.47;5064334;28;20036;-75
2023/04/28 04:20:28;;;;;;;9.13;7.10;;;;;;;8.23;71.70;101026.50;5066559;28;20040;-74
2023/04/28 04:22:53;;;;;;;10.55;7.38;;;;;;;8.22;71.63;101022.22;5062368;28;20041;-74
2023/04/28 04:25:18;;;;;;;11.88;7.68;;;;;;;8.24;71.52;101035.19;5067651;28;20036;-74
2023/04/28 04:27:44;;;;;;;11.50;7.45;;;;;;;8.25;72.02;101042.13;5059047;28;20347;-75
2023/04/28 04:30:10;;;;;;;11.07;7.40;;;;;;;8.24;72.12;101043.91;5070350;28;20425;-75
2023/04/28 04:32:35;;;;;;;8.40;7.47;;;;;;;8.25;72.15;101049.97;5091326;28;20089;-75
2023/04/28 04:35:01;;;;;;;8.13;7.32;;;;;;;8.25;72.50;101063.00;5070855;28;20355;-74
2023/04/28 04:37:26;;;;;;;9.90;7.15;;;;;;;8.26;72.80;101059.50;5062303;28;20343;-74
2023/04/28 04:39:52;;;;;;;7.88;7.03;;;;;;;8.26;72.73;101064.72;5071652;28;20419;-74
2023/04/28 04:42:17;;;;;;;10.35;8.00;;;;;;;8.26;73.12;101042.09;5060513;28;20063;-74
2023/04/28 04:44:42;;;;;;;8.85;7.18;;;;;;;8.29;73.07;101045.50;5073642;28;20025;-74
2023/04/28 04:47:07;;;;;;;8.90;7.70;;;;;;;8.30;73.43;101042.88;5058461;28;20036;-75
2023/04/28 04:49:33;;;;;;;12.27;8.07;;;;;;;8.31;74.19;101055.00;5074497;28;20029;-75
2023/04/28 04:51:58;;;;;;;10.43;8.13;;;;;;;8.30;74.82;101044.63;5065064;28;20036;-75
2023/04/28 04:54:24;;;;;;;11.48;7.63;;;;;;;8.28;75.66;101042.06;5079015;28;20074;-74
2023/04/28 04:56:50;;;;;;;10.63;8.15;;;;;;;8.26;76.09;101041.25;5057917;28;20040;-74
2023/04/28 04:59:15;;;;;;;8.13;7.35;;;;;;;8.25;76.54;101052.56;5059431;28;20244;-74
2023/04/28 05:01:40;;;;;;;10.02;8.07;;;;;;;8.24;77.61;101043.91;5075960;28;20058;-74
2023/04/28 05:04:06;;;;;;;9.80;8.27;;;;;;;8.23;77.83;101049.16;5095623;28;20351;-74
2023/04/28 05:06:32;;;;;;;15.55;8.43;;;;;;;8.22;78.21;101050.03;5078654;28;20138;-74
2023/04/28 05:08:58;;;;;;;14.00;8.82;;;;;;;8.21;78.99;101045.72;5077882;28;20285;-74
2023/04/28 05:11:23;;;;;;;11.70;8.57;;;;;;;8.21;79.53;101053.56;5057480;28;20075;-75
2023/04/28 05:13:48;;;;;;;11.77;7.72;;;;;;;8.20;79.67;101051.84;5059822;28;20048;-74
2023/04/28 05:16:14;;;;;;;9.90;8.25;;;;;;;8.17;80.16;101058.00;5070216;28;20090;-75
2023/04/28 05:18:40;;;;;;;10.50;8.82;;;;;;;8.16;80.38;101065.88;5054362;28;20215;-74
2023/04/28 05:21:05;;;;;;;8.48;7.53;;;;;;;8.16;80.18;101058.88;5067527;28;20032;-75
2023/04/28 05:23:31;;;;;;;7.30;6.53;;;;;;;8.19;80.25;101060.56;5067246;28;20236;-75
2023/04/28 05:25:56;;;;;;;8.77;7.00;;;;;;;8.22;79.90;101030.03;5066686;28;20278;-75
2023/04/28 05:28:22;;;;;;;8.40;7.43;;;;;;;8.24;80.48;101035.19;5072591;28;20090;-75
2023/04/28 05:30:47;;;;;;;12.02;6.60;;;;;;;8.25;80.21;101034.31;5061180;28;20039;-75
2023/04/28 05:33:12;;;;;;;8.13;7.30;;;;;;;8.26;80.17;101033.41;5063234;28;20071;-75
2023/04/28 05:35:38;;;;;;;9.25;7.63;;;;;;;8.27;80.06;101019.44;5078136;28;20235;-75
2023/04/28 05:38:04;;;;;;;7.57;6.85;;;;;;;8.30;79.77;101005.47;5060498;28;20343;-75
2023/04/28 05:40:29;;;;;;;6.60;6.00;;;;;;;8.32;80.00;101004.53;5074388;28;20041;-75
2023/04/28 05:42:55;;;;;;;7.68;6.90;;;;;;;8.34;79.77;101013.16;5072332;28;20046;-75
2023/04/28 05:45:20;;;;;;;7.03;6.43;;;;;;;8.37;79.66;101009.63;5062020;28;20123;-75
2023/04/28 05:47:46;;;;;;;11.30;8.52;;;;;;;8.39;79.26;101005.22;5056711;28;20029;-75
2023/04/28 05:50:11;;;;;;;9.55;7.93;;;;;;;8.42;79.27;101010.34;5068049;28;20047;-75
2023/04/28 05:52:37;;;;;;;7.05;6.30;;;;;;;8.44;79.97;101012.03;5059486;28;20052;-75
2023/04/28 05:55:02;;;;;;;7.45;6.55;;;;;;;8.46;79.51;101006.78;5063089;28;20032;-75
2023/04/28 05:57:28;;;;;;;7.95;7.15;;;;;;;8.47;79.29;101011.09;5074441;28;20056;-75
2023/04/28 05:59:53;;;;;;;6.75;6.15;;;;;;;8.49;79.57;101014.50;5062230;28;20041;-75
2023/04/28 06:02:19;;;;;;;7.25;6.03;;;;;;;8.50;79.13;101008.41;5086108;28;20048;-75
2023/04/28 06:04:44;;;;;;;7.18;6.53;;;;;;;8.52;79.33;101005.75;5076465;28;20108;-74
2023/04/28 06:07:10;;;;;;;8.40;7.53;;;;;;;8.53;80.15;101002.22;5077802;28;20078;-74
2023/04/28 06:09:35;;;;;;;9.57;7.82;;;;;;;8.53;80.21;101003.09;5060855;28;20078;-75
2023/04/28 06:12:02;;;;;;;6.88;6.10;;;;;;;8.56;79.97;101007.34;5059351;28;20048;-75
2023/04/28 06:14:27;;;;;;;8.43;7.57;;;;;;;8.57;79.93;101009.94;5072022;28;20033;-75
2023/04/28 06:16:53;;;;;;;9.98;7.30;;;;;;;8.58;80.13;101019.44;5068663;28;20040;-76
2023/04/28 06:19:18;;;;;;;9.15;7.28;;;;;;;8.59;80.37;101023.78;5085716;28;20208;-76
2023/04/28 06:21:45;;;;;;;7.47;6.70;;;;;;;8.60;80.08;101019.41;5087766;28;20098;-75
2023/04/28 06:24:10;;;;;;;7.65;6.80;;;;;;;8.61;79.83;101016.75;5073819;28;20071;-75
2023/04/28 06:26:36;;;;;;;9.30;7.30;;;;;;;8.63;80.19;101008.88;5078048;28;20350;-75
2023/04/28 06:29:02;;;;;;;8.60;7.68;;;;;;;8.64;80.82;101006.25;5079873;28;20036;-75
2023/04/28 06:31:27;;;;;;;11.48;8.50;;;;;;;8.66;81.28;101000.97;5077015;28;20040;-75
2023/04/28 06:33:52;;;;;;;11.43;7.95;;;;;;;8.68;81.37;101000.91;5075367;28;20964;-75
2023/04/28 06:36:18;;;;;;;10.63;8.30;;;;;;;8.70;81.56;100993.91;5077255;28;20064;-75
2023/04/28 06:38:44;;;;;;;10.45;8.70;;;;;;;8.72;81.97;100995.56;5071549;28;20225;-75
2023/04/28 06:41:10;;;;;;;10.50;8.30;;;;;;;8.74;82.02;100992.91;5070924;28;20044;-75
2023/04/28 06:43:36;;;;;;;11.15;9.40;;;;;;;8.77;82.60;100995.44;5062912;28;20059;-75
2023/04/28 06:46:01;;;;;;;11.80;9.80;;;;;;;8.78;82.96;100986.69;5065997;28;20032;-75
2023/04/28 06:48:27;;;;;;;11.35;9.32;;;;;;;8.78;82.80;100990.13;5071823;28;20040;-75
2023/04/28 06:50:52;;;;;;;10.38;9.27;;;;;;;8.81;83.04;100994.41;5067935;28;20046;-75
2023/04/28 06:53:17;;;;;;;14.73;10.48;;;;;;;8.82;83.51;100993.50;5089927;28;20251;-75
2023/04/28 06:55:43;;;;;;;13.73;10.38;;;;;;;8.85;84.62;100998.66;5064731;28;20044;-75
2023/04/28 06:58:08;;;;;;;10.80;9.23;;;;;;;8.87;84.95;100998.59;5081532;28;20067;-75
2023/04/28 07:00:34;;;;;;;12.68;9.02;;;;;;;8.88;84.79;100992.47;5085303;28;20025;-75
2023/04/28 07:03:00;;;;;;;12.52;9.63;;;;;;;8.89;84.63;100997.63;5075034;28;20044;-75
2023/04/28 07:05:26;;;;;;;15.38;10.80;;;;;;;8.93;84.76;100990.56;5074929;28;20406;-75
2023/04/28 07:07:52;;;;;;;15.02;11.30;;;;;;;8.94;85.82;100995.75;5078734;28;20037;-75
2023/04/28 07:10:17;;;;;;;14.02;11.27;;;;;;;8.98;86.10;100999.97;5079204;28;20052;-75
2023/04/28 07:12:43;;;;;;;11.35;9.82;;;;;;;9.00;86.22;100998.19;5078797;28;20040;-75
2023/04/28 07:15:09;;;;;;;11.00;9.00;;;;;;;9.02;86.69;100992.88;5076566;28;20107;-75
2023/04/28 07:17:35;;;;;;;15.15;10.68;;;;;;;9.05;86.44;101000.63;5078050;28;20033;-75
2023/04/28 07:20:00;;;;;;;14.40;10.98;;;;;;;9.06;86.83;100994.50;5078287;28;20040;-75
2023/04/28 07:22:25;;;;;;;19.70;13.13;;;;;;;9.10;87.52;100997.88;5071103;28;20071;-76
2023/04/28 07:24:51;;;;;;;17.25;12.02;;;;;;;9.11;88.23;100997.81;5078555;28;20044;-76
2023/04/28 07:27:17;;;;;;;18.90;12.48;;;;;;;9.14;88.35;100991.66;5079929;28;20419;-76
2023/04/28 07:29:42;;;;;;;24.98;13.68;;;;;;;9.17;89.21;100996.78;5079966;28;20040;-75
2023/04/28 07:32:09;;;;;;;21.60;14.80;;;;;;;9.20;90.05;100986.22;5083047;28;20041;-75
2023/04/28 07:34:36;;;;;;;19.05;14.85;;;;;;;9.23;91.00;100986.97;5077406;28;20381;-75
2023/04/28 07:37:02;;;;;;;24.55;14.63;;;;;;;9.26;91.48;100986.03;5076461;28;20140;-75
2023/04/28 07:39:29;;;;;;;20.02;14.57;;;;;;;9.31;92.97;100983.25;5091217;28;20212;-75
2023/04/28 07:41:56;;;;;;;25.00;14.43;;;;;;;9.32;93.12;100985.81;5086078;28;20339;-75
2023/04/28 07:44:22;;;;;;;23.15;16.58;;;;;;;9.37;93.16;100993.53;5074090;28;20068;-75
2023/04/28 07:46:48;;;;;;;25.85;16.02;;;;;;;9.41;94.33;100987.28;5072248;28;20051;-75
2023/04/28 07:49:13;;;;;;;20.50;14.02;;;;;;;9.44;94.97;100987.19;5080048;28;20032;-76
2023/04/28 07:51:38;;;;;;;19.42;14.43;;;;;;;9.47;94.21;100989.66;5078172;28;20082;-76
2023/04/28 07:54:04;;;;;;;18.35;13.60;;;;;;;9.51;94.23;100979.97;5070645;28;20248;-75
2023/04/28 07:56:29;;;;;;;18.33;13.52;;;;;;;9.54;95.34;100985.94;5078384;28;20043;-75
2023/04/28 07:58:55;;;;;;;20.13;14.48;;;;;;;9.57;94.96;100988.47;5073058;28;20039;-75
2023/04/28 08:01:21;;;;;;;19.92;15.18;;;;;;;9.60;95.94;100983.13;5081837;28;20032;-75
2023/04/28 08:03:46;;;;;;;22.90;16.58;;;;;;;9.61;96.14;100990.06;5071454;28;20143;-75
2023/04/28 08:06:12;;;;;;;17.08;13.57;;;;;;;9.64;95.89;100988.25;5075142;28;20048;-75
2023/04/28 08:08:38;;;;;;;21.35;14.30;;;;;;;9.66;96.04;100986.44;5072087;28;20028;-76
2023/04/28 08:11:03;;;;;;;22.20;15.20;;;;;;;9.69;96.99;100986.34;5069660;28;20090;-75
2023/04/28 08:13:29;;;;;;;18.38;14.20;;;;;;;9.73;98.17;100988.81;5071680;28;20066;-76
2023/04/28 08:15:55;;;;;;;24.35;17.67;;;;;;;9.77;99.02;100984.31;5070439;28;20108;-76
2023/04/28 08:18:21;;;;;;;25.50;17.40;;;;;;;9.82;99.17;100989.38;5069047;28;20040;-76
2023/04/28 08:20:46;;;;;;;26.48;16.85;;;;;;;9.84;99.21;100992.78;5065940;28;20342;-75
2023/04/28 08:23:12;;;;;;;22.77;16.80;;;;;;;9.88;100.00;100997.03;5074628;28;20048;-76
2023/04/28 08:25:37;;;;;;;26.67;17.65;;;;;;;9.92;100.00;100996.84;5066634;28;20036;-76
2023/04/28 08:28:05;;;;;;;24.35;17.38;;;;;;;9.95;100.00;100985.41;5075606;28;20047;-76
2023/04/28 08:30:30;;;;;;;20.15;16.13;;;;;;;9.99;100.00;100987.88;5078736;28;20036;-75
2023/04/28 08:32:56;;;;;;;26.05;18.33;;;;;;;10.05;100.00;100983.34;5077528;28;20055;-75
2023/04/28 08:35:21;;;;;;;24.85;17.67;;;;;;;10.07;100.00;100984.97;5078458;28;20243;-75
2023/04/28 08:37:48;;;;;;;25.27;18.10;;;;;;;10.11;100.00;100981.31;5077133;28;20036;-75
2023/04/28 08:40:14;;;;;;;23.45;16.70;;;;;;;10.12;100.00;100975.19;5078485;28;20093;-75
2023/04/28 08:42:40;;;;;;;20.17;15.75;;;;;;;10.16;100.00;100981.16;5074963;28;20071;-75
2023/04/28 08:45:06;;;;;;;21.65;15.18;;;;;;;10.19;100.00;100975.84;5071796;28;20336;-75
2023/04/28 08:47:38;;;;;;;23.40;16.67;;;;;;;10.22;100.00;100977.47;5075346;28;20051;-76
2023/04/28 08:50:05;;;;;;;24.45;16.58;;;;;;;10.28;100.00;100979.88;5069973;28;20066;-75
2023/04/28 08:52:31;;;;;;;35.92;18.13;;;;;;;10.35;100.00;100977.00;5076924;28;20072;-75
2023/04/28 08:55:02;;;;;;;23.88;17.10;;;;;;;10.41;100.00;100981.16;5080055;28;20044;-75
2023/04/28 08:57:39;;;;;;;35.20;18.88;;;;;;;10.45;100.00;100982.72;5078418;28;20032;-75
2023/04/28 09:00:05;;;;;;;29.45;17.70;;;;;;;10.51;100.00;100972.03;5077338;28;20059;-75
2023/04/28 09:02:31;;;;;;;31.08;17.73;;;;;;;10.52;100.00;100973.75;5072577;28;20040;-75
2023/04/28 09:04:56;;;;;;;24.77;17.58;;;;;;;10.55;100.00;100970.13;5075016;28;20033;-75
2023/04/28 09:07:22;;;;;;;29.92;17.58;;;;;;;10.57;100.00;100966.56;5076622;28;20032;-75
2023/04/28 09:09:47;;;;;;;29.73;20.10;;;;;;;10.65;100.00;100970.66;5075015;28;20052;-75
2023/04/28 09:12:12;;;;;;;29.33;19.60;;;;;;;10.71;100.00;100970.41;5076595;28;20111;-75
2023/04/28 09:14:38;;;;;;;31.00;19.65;;;;;;;10.75;100.00;100966.75;5076418;28;20047;-75
2023/04/28 09:17:15;;;;;;;29.60;20.40;;;;;;;10.79;100.00;100957.00;5077639;28;20051;-75
2023/04/28 09:19:43;;;;;;;28.83;21.15;;;;;;;10.82;100.00;100959.50;5075381;28;20243;-75
2023/04/28 09:22:09;;;;;;;32.20;22.20;;;;;;;10.84;100.00;100966.41;5076386;28;20052;-75
2023/04/28 09:24:35;;;;;;;39.47;22.75;;;;;;;10.85;100.00;100960.22;5075819;28;20340;-75
2023/04/28 09:27:06;;;;;;;32.97;23.05;;;;;;;10.89;100.00;100964.44;5076387;28;20052;-75
2023/04/28 09:29:32;;;;;;;31.42;22.42;;;;;;;10.93;100.00;100959.91;5072265;28;20043;-75
2023/04/28 09:32:17;;;;;;;41.03;23.10;;;;;;;10.98;100.00;100960.59;5074457;28;20040;-75
2023/04/28 09:34:48;;;;;;;30.92;21.85;;;;;;;11.02;100.00;100961.31;5075229;28;20094;-75
2023/04/28 09:37:18;;;;;;;33.08;22.85;;;;;;;11.06;100.00;100958.53;5076856;28;20042;-75
2023/04/28 09:39:49;;;;;;;23.42;18.90;;;;;;;11.12;100.00;100957.41;5065710;28;20231;-75
2023/04/28 09:42:41;;;;;;;27.08;16.13;;;;;;;11.14;100.00;100959.06;5080574;28;20074;-75
2023/04/28 09:45:08;;;;;;;17.00;11.32;;;;;;;11.19;100.00;100963.25;5075861;28;20355;-75
2023/04/28 09:47:39;;;;;;;12.38;7.32;;;;;;;11.25;100.00;100973.50;5077888;28;20076;-76
2023/04/28 09:50:08;;;;;;;7.82;7.07;;;;;;;11.26;100.00;100964.69;5066535;28;20028;-75
2023/04/28 09:52:34;;;;;;;9.77;8.05;;;;;;;11.28;100.00;100961.13;5075659;28;20043;-76
2023/04/28 09:55:03;;;;;;;10.23;7.70;;;;;;;11.31;100.00;100970.59;5076995;28;20403;-75
2023/04/28 09:57:33;;;;;;;12.82;8.15;;;;;;;11.33;100.00;100976.63;5077083;28;20032;-76
2023/04/28 09:59:59;;;;;;;9.43;7.13;;;;;;;11.34;100.00;100971.34;5076382;28;20047;-75
2023/04/28 10:02:25;;;;;;;10.13;7.60;;;;;;;11.36;100.00;100971.28;5076634;28;20048;-75
2023/04/28 10:04:51;;;;;;;9.90;7.43;;;;;;;11.39;100.00;100980.78;5073201;28;20073;-75
2023/04/28 10:07:19;;;;;;;9.13;6.30;;;;;;;11.42;100.00;100975.41;5076795;28;20067;-75
2023/04/28 10:09:51;;;;;;;6.40;5.80;;;;;;;11.43;100.00;100967.47;5074860;28;20054;-76
2023/04/28 10:12:17;;;;;;;7.38;6.00;;;;;;;11.48;100.00;100972.53;5075471;28;20390;-76
2023/04/28 10:14:44;;;;;;;5.88;5.38;;;;;;;11.50;100.00;100974.16;5076139;28;20303;-75
2023/04/28 10:17:16;;;;;;;7.43;5.78;;;;;;;11.51;100.00;100972.38;5075827;28;20055;-75
2023/04/28 10:19:43;;;;;;;5.60;5.05;;;;;;;11.52;100.00;100974.94;5073346;28;20327;-76
2023/04/28 10:22:31;;;;;;;5.78;5.13;;;;;;;11.56;100.00;100977.47;5073210;28;20401;-75
2023/04/28 10:25:11;;;;;;;8.60;5.37;;;;;;;11.56;100.00;100973.06;5072253;28;20104;-76
2023/04/28 10:27:45;;;;;;;7.65;5.43;;;;;;;11.59;100.00;100979.94;5068822;28;20477;-76
2023/04/28 10:30:16;;;;;;;7.32;5.32;;;;;;;11.61;100.00;100986.84;5076239;28;20268;-75
2023/04/28 10:32:46;;;;;;;6.05;5.45;;;;;;;11.60;100.00;100982.50;5075712;28;20062;-76
2023/04/28 10:35:21;;;;;;;8.43;5.50;;;;;;;11.61;100.00;100986.84;5061465;28;20071;-75
2023/04/28 10:38:14;;;;;;;7.82;6.00;;;;;;;11.63;100.00;100985.00;5075981;28;20040;-76
2023/04/28 10:40:42;;;;;;;6.13;5.53;;;;;;;11.65;100.00;100987.56;5077765;28;20097;-76
2023/04/28 10:43:12;;;;;;;5.10;4.60;;;;;;;11.67;100.00;100985.72;5077139;28;20048;-76
2023/04/28 10:45:53;;;;;;;5.15;3.97;;;;;;;11.67;100.00;100985.72;5066958;28;20042;-75
2023/04/28 10:48:42;;;;;;;5.80;3.85;;;;;;;11.67;100.00;100991.81;5077552;28;20063;-75
2023/04/28 10:51:11;;;;;;;7.18;3.42;;;;;;;11.69;100.00;100991.75;5074500;28;20343;-75
2023/04/28 10:53:50;;;;;;;6.10;4.82;;;;;;;11.70;100.00;100991.69;5071006;28;20244;-75
2023/04/28 10:56:26;;;;;;;5.90;4.75;;;;;;;11.70;100.00;100991.69;5065919;28;20040;-75
2023/04/28 10:58:53;;;;;;;7.18;4.65;;;;;;;11.70;100.00;100999.56;5069311;28;20043;-75
2023/04/28 11:01:23;;;;;;;5.88;5.40;;;;;;;11.70;100.00;100988.22;5078564;28;20063;-75
2023/04/28 11:06:44;;;;;;;5.32;4.93;;;;;;;11.72;100.00;100994.25;5061450;28;20075;-75
2023/04/28 11:09:18;;;;;;;6.07;5.55;;;;;;;11.72;100.00;100994.25;5073068;28;20044;-75
2023/04/28 11:11:58;;;;;;;5.50;5.00;;;;;;;11.72;100.00;100989.00;5068175;28;20726;-76
2023/04/28 11:14:24;;;;;;;4.72;4.32;;;;;;;11.73;100.00;100990.69;5069093;28;20080;-75
2023/04/28 11:16:55;;;;;;;4.65;4.10;;;;;;;11.73;100.00;100995.94;5076648;28;20032;-75
2023/04/28 11:19:23;;;;;;;4.70;4.28;;;;;;;11.74;100.00;100988.94;5076090;28;20040;-75
2023/04/28 11:21:49;;;;;;;4.25;3.92;;;;;;;11.75;100.00;100995.88;5072778;28;20199;-75
2023/04/28 11:24:16;;;;;;;3.40;3.17;;;;;;;11.74;100.00;100995.03;5069553;28;20312;-75